Time;durP1;ratioP1;P1;durP2;ratioP2;P2;SDS_P1;SDS_P2;PMS_P1;PMS_P2;Temp;Humidity;BMP_temperature;BMP_pressure;BME280_temperature;BME280_humidity;BME280_pressure;Samples;Min_cycle;Max_cycle;Signal;HPM_P1;HPM_P2
2023/04/24 00:00:09;;;;;;;13.70;8.80;;;;;;;12.36;47.03;100531.31;108022;1288;21993;-59
2023/04/24 00:02:39;;;;;;;13.90;8.70;;;;;;;12.29;46.94;100530.88;108109;1289;21980;-59
2023/04/24 00:05:06;;;;;;;13.90;9.00;;;;;;;12.26;47.07;100529.36;107958;1289;22027;-60
2023/04/24 00:07:31;;;;;;;11.30;8.50;;;;;;;12.20;47.33;100530.70;107981;1289;22365;-59
2023/04/24 00:09:57;;;;;;;16.10;11.50;;;;;;;12.15;47.61;100529.19;107943;1289;21996;-59
2023/04/24 00:12:24;;;;;;;16.50;12.10;;;;;;;12.15;48.01;100530.06;108013;1289;21989;-60
2023/04/24 00:14:49;;;;;;;21.90;12.60;;;;;;;12.19;48.30;100531.59;107981;1289;21989;-61
2023/04/24 00:17:15;;;;;;;17.20;13.20;;;;;;;12.25;48.39;100529.02;108022;1289;21990;-59
2023/04/24 00:19:41;;;;;;;17.10;12.90;;;;;;;12.30;48.54;100528.25;108127;1288;22114;-60
2023/04/24 00:22:07;;;;;;;14.00;10.10;;;;;;;12.34;48.66;100527.64;108069;1288;22020;-60
2023/04/24 00:24:32;;;;;;;16.60;11.80;;;;;;;12.37;48.58;100526.36;107842;1284;21990;-59
2023/04/24 00:27:00;;;;;;;16.40;10.50;;;;;;;12.35;48.28;100526.91;107966;1287;21990;-61
2023/04/24 00:29:26;;;;;;;17.70;11.50;;;;;;;12.28;47.96;100527.05;107965;1289;21986;-59
2023/04/24 00:31:52;;;;;;;21.00;13.40;;;;;;;12.17;47.78;100528.64;108027;1289;21999;-59
2023/04/24 00:34:18;;;;;;;16.80;12.50;;;;;;;12.07;47.83;100530.04;107929;1289;21987;-59
2023/04/24 00:36:43;;;;;;;15.10;11.90;;;;;;;11.99;48.01;100529.08;108027;1288;22357;-60
2023/04/24 00:39:09;;;;;;;16.10;11.90;;;;;;;11.98;48.24;100526.98;107966;1289;22009;-59
2023/04/24 00:41:35;;;;;;;15.40;11.60;;;;;;;12.00;48.63;100525.90;107953;1289;21987;-61
2023/04/24 00:44:01;;;;;;;16.00;10.40;;;;;;;12.05;48.59;100529.71;107883;1289;21987;-61
2023/04/24 00:46:27;;;;;;;14.40;10.70;;;;;;;11.97;48.18;100532.96;107996;1289;21984;-59
2023/04/24 00:48:52;;;;;;;15.00;9.80;;;;;;;11.96;48.66;100532.79;108065;1289;21986;-61
2023/04/24 00:51:18;;;;;;;16.80;9.80;;;;;;;11.99;48.60;100537.70;107846;1289;21993;-61
2023/04/24 00:53:44;;;;;;;12.70;9.00;;;;;;;11.99;48.45;100537.34;107897;1289;21989;-59
2023/04/24 00:56:10;;;;;;;12.70;9.70;;;;;;;12.02;48.67;100534.32;107916;1289;21990;-61
2023/04/24 00:58:35;;;;;;;17.10;10.20;;;;;;;12.07;48.42;100545.85;107923;1289;22002;-59
2023/04/24 01:01:02;;;;;;;16.10;10.70;;;;;;;12.06;48.23;100545.19;107869;1283;21990;-61
2023/04/24 01:03:30;;;;;;;14.70;10.30;;;;;;;12.06;48.46;100549.21;107872;1288;22000;-59
2023/04/24 01:05:56;;;;;;;15.10;10.30;;;;;;;12.07;48.61;100549.91;107984;1289;21986;-59
2023/04/24 01:08:23;;;;;;;11.60;9.10;;;;;;;12.10;48.84;100550.56;107925;1289;22002;-60
2023/04/24 01:10:50;;;;;;;13.30;9.00;;;;;;;12.15;48.46;100551.35;107943;1289;21991;-60
2023/04/24 01:13:16;;;;;;;13.80;10.40;;;;;;;12.14;48.40;100553.12;108007;1289;22084;-61
2023/04/24 01:15:42;;;;;;;14.00;10.30;;;;;;;12.13;48.41;100551.73;107911;1289;22080;-61
2023/04/24 01:18:07;;;;;;;13.80;10.40;;;;;;;12.14;48.55;100544.88;108059;1288;21987;-60
2023/04/24 01:20:33;;;;;;;13.10;10.40;;;;;;;12.12;48.62;100542.95;108029;1289;21999;-62
2023/04/24 01:23:00;;;;;;;15.20;11.10;;;;;;;12.11;48.63;100539.28;107977;1289;23872;-61
2023/04/24 01:25:26;;;;;;;17.10;12.30;;;;;;;12.02;48.50;100539.95;107777;1288;21998;-60
2023/04/24 01:27:52;;;;;;;16.40;12.80;;;;;;;11.94;48.54;100537.92;107065;1289;1002768;-59
2023/04/24 01:30:18;;;;;;;15.30;11.60;;;;;;;11.89;48.73;100536.79;107953;1288;21986;-59
2023/04/24 01:32:44;;;;;;;18.40;12.90;;;;;;;11.76;48.47;100534.16;108041;1288;21988;-60
2023/04/24 01:35:10;;;;;;;15.20;11.80;;;;;;;11.66;48.67;100529.73;107807;1288;21998;-60
2023/04/24 01:37:37;;;;;;;14.90;12.00;;;;;;;11.59;48.76;100528.08;108114;1288;21991;-61
2023/04/24 01:40:05;;;;;;;14.80;10.70;;;;;;;11.56;48.94;100529.52;108084;1288;21996;-61
2023/04/24 01:42:31;;;;;;;13.90;10.30;;;;;;;11.61;49.14;100530.33;108133;1288;21997;-61
2023/04/24 01:44:57;;;;;;;14.20;11.50;;;;;;;11.66;48.89;100530.27;107865;1289;21989;-61
2023/04/24 01:47:23;;;;;;;13.90;11.40;;;;;;;11.65;48.55;100527.11;107965;1289;21989;-60
2023/04/24 01:49:50;;;;;;;12.90;10.50;;;;;;;11.59;48.40;100521.92;107915;1289;22025;-61
2023/04/24 01:52:17;;;;;;;13.50;10.10;;;;;;;11.46;48.06;100518.23;107900;1289;22455;-59
2023/04/24 01:54:43;;;;;;;13.30;9.40;;;;;;;11.31;47.97;100517.71;108135;1288;23625;-61
2023/04/24 01:57:08;;;;;;;14.20;9.80;;;;;;;11.23;48.18;100519.05;108070;1288;23447;-60
2023/04/24 01:59:36;;;;;;;12.60;9.50;;;;;;;11.25;48.62;100515.35;107760;1279;22001;-62
2023/04/24 02:02:03;;;;;;;14.10;10.40;;;;;;;11.31;48.61;100508.60;107933;1289;22195;-61
2023/04/24 02:04:28;;;;;;;17.30;10.50;;;;;;;11.36;48.77;100508.02;108027;1289;21986;-59
2023/04/24 02:06:54;;;;;;;15.00;10.40;;;;;;;11.38;48.74;100509.73;107997;1289;22006;-59
2023/04/24 02:09:20;;;;;;;18.50;12.10;;;;;;;11.36;48.76;100506.95;108026;1289;21996;-59
2023/04/24 02:11:46;;;;;;;16.80;12.70;;;;;;;11.39;48.73;100506.73;107935;1289;22000;-59
2023/04/24 02:14:11;;;;;;;20.20;14.60;;;;;;;11.36;48.55;100507.13;107347;1288;1006246;-61
2023/04/24 02:16:37;;;;;;;18.50;13.90;;;;;;;11.30;48.40;100507.72;108015;1289;21990;-59
2023/04/24 02:19:03;;;;;;;17.80;13.50;;;;;;;11.23;48.25;100508.54;108032;1288;21990;-62
2023/04/24 02:21:28;;;;;;;14.80;12.10;;;;;;;11.09;48.09;100507.83;107985;1288;21980;-59
2023/04/24 02:23:54;;;;;;;13.60;11.00;;;;;;;10.95;48.26;100505.53;108020;1289;22224;-62
2023/04/24 02:26:20;;;;;;;13.40;11.00;;;;;;;10.88;48.49;100505.25;107971;1289;21992;-61
2023/04/24 02:28:46;;;;;;;12.60;10.00;;;;;;;10.84;48.75;100507.58;107989;1288;21998;-59
2023/04/24 02:31:11;;;;;;;13.30;10.80;;;;;;;10.82;48.98;100506.73;108016;1288;22458;-59
2023/04/24 02:33:37;;;;;;;11.20;9.20;;;;;;;10.78;49.16;100510.30;107949;1289;22178;-59
2023/04/24 02:36:03;;;;;;;10.20;9.10;;;;;;;10.75;49.53;100510.48;107218;1289;1002468;-61
2023/04/24 02:38:29;;;;;;;11.70;8.80;;;;;;;10.76;49.69;100510.65;108022;1289;22147;-59
2023/04/24 02:40:58;;;;;;;8.30;6.70;;;;;;;10.80;49.89;100510.44;108000;1288;21992;-59
2023/04/24 02:43:24;;;;;;;7.90;6.60;;;;;;;10.82;50.05;100507.60;108020;1283;21987;-59
2023/04/24 02:45:50;;;;;;;10.00;8.10;;;;;;;10.83;50.24;100506.71;108006;1287;22625;-59
2023/04/24 02:48:17;;;;;;;9.70;7.70;;;;;;;10.83;50.24;100504.78;108031;1289;22024;-62
2023/04/24 02:50:42;;;;;;;10.40;7.10;;;;;;;10.82;50.27;100504.27;107950;1288;21989;-59
2023/04/24 02:53:08;;;;;;;11.60;7.80;;;;;;;10.80;50.30;100504.83;107975;1289;21992;-61
2023/04/24 02:55:34;;;;;;;7.20;6.40;;;;;;;10.80;50.30;100504.83;107992;1288;21995;-62
2023/04/24 02:58:00;;;;;;;13.90;8.10;;;;;;;10.79;50.09;100502.19;107937;1289;21995;-59
2023/04/24 03:00:25;;;;;;;10.80;9.00;;;;;;;10.69;49.59;100504.58;107931;1289;21989;-61
2023/04/24 03:02:51;;;;;;;9.80;8.40;;;;;;;10.55;49.62;100502.98;107937;1289;22033;-60
2023/04/24 03:05:17;;;;;;;12.00;10.70;;;;;;;10.43;49.45;100504.15;107947;1289;21994;-61
2023/04/24 03:07:42;;;;;;;16.60;11.30;;;;;;;10.33;49.48;100504.92;107984;1289;22004;-59
2023/04/24 03:10:08;;;;;;;11.60;9.00;;;;;;;10.22;49.26;100507.45;107956;1289;21992;-59
2023/04/24 03:12:37;;;;;;;7.40;6.40;;;;;;;10.12;49.52;100505.80;107927;1288;21987;-61
2023/04/24 03:15:03;;;;;;;8.60;6.00;;;;;;;10.08;49.61;100506.53;107954;1289;21990;-59
2023/04/24 03:17:29;;;;;;;8.10;6.40;;;;;;;10.07;49.83;100507.06;108029;1289;21990;-59
2023/04/24 03:19:55;;;;;;;12.20;7.50;;;;;;;10.10;50.18;100503.89;107934;1289;21992;-61
2023/04/24 03:22:21;;;;;;;8.00;6.70;;;;;;;10.20;50.50;100508.36;107963;1286;21993;-61
2023/04/24 03:24:47;;;;;;;13.10;7.40;;;;;;;10.33;50.87;100508.60;107940;1289;21995;-61
2023/04/24 03:27:13;;;;;;;11.30;8.00;;;;;;;10.48;51.11;100512.34;107995;1289;22053;-62
2023/04/24 03:29:40;;;;;;;9.90;7.70;;;;;;;10.65;51.20;100510.06;107901;1289;21992;-58
2023/04/24 03:32:06;;;;;;;9.60;7.80;;;;;;;10.79;51.02;100511.50;107939;1289;22056;-59
2023/04/24 03:34:32;;;;;;;10.90;9.20;;;;;;;10.88;50.62;100510.34;107932;1289;21990;-59
2023/04/24 03:36:57;;;;;;;11.60;9.40;;;;;;;10.90;50.25;100510.15;107894;1289;21992;-60
2023/04/24 03:39:25;;;;;;;11.50;9.20;;;;;;;10.90;50.22;100510.85;107945;1279;22022;-59
2023/04/24 03:41:50;;;;;;;11.90;8.10;;;;;;;10.91;50.29;100513.66;108082;1287;21992;-60
2023/04/24 03:44:16;;;;;;;12.40;8.30;;;;;;;10.91;50.52;100516.99;107920;1289;21996;-60
2023/04/24 03:46:42;;;;;;;11.00;8.00;;;;;;;10.83;50.28;100517.61;107977;1289;21991;-61
2023/04/24 03:49:07;;;;;;;11.60;7.30;;;;;;;10.74;50.31;100515.60;107932;1288;21990;-60
2023/04/24 03:51:33;;;;;;;11.10;6.20;;;;;;;10.68;50.64;100517.58;107961;1289;21999;-60
2023/04/24 03:53:59;;;;;;;10.40;5.70;;;;;;;10.68;51.10;100522.15;107997;1289;22455;-60
2023/04/24 03:56:24;;;;;;;8.20;6.10;;;;;;;10.76;51.61;100528.20;107705;1285;339377;-60
2023/04/24 03:58:50;;;;;;;10.10;6.30;;;;;;;10.92;52.07;100526.98;107969;1289;21977;-60
2023/04/24 04:01:16;;;;;;;6.30;4.50;;;;;;;11.09;52.32;100528.90;107924;1289;21998;-60
2023/04/24 04:03:41;;;;;;;7.40;5.20;;;;;;;11.22;52.50;100532.60;107920;1289;21995;-60
2023/04/24 04:06:07;;;;;;;7.80;5.20;;;;;;;11.36;52.86;100534.00;107925;1288;22536;-60
2023/04/24 04:08:33;;;;;;;8.60;6.00;;;;;;;11.55;53.29;100531.27;108018;1289;21988;-61
2023/04/24 04:10:59;;;;;;;7.90;6.40;;;;;;;11.76;53.34;100531.52;108061;1289;21992;-60
2023/04/24 04:13:25;;;;;;;8.40;5.80;;;;;;;11.96;53.69;100532.11;108017;1289;22006;-59
2023/04/24 04:15:51;;;;;;;6.50;5.60;;;;;;;12.15;53.61;100532.52;107902;1288;21985;-61
2023/04/24 04:18:16;;;;;;;10.00;7.40;;;;;;;12.32;53.78;100531.02;108017;1289;22002;-62
2023/04/24 04:20:42;;;;;;;8.80;6.10;;;;;;;12.49;53.79;100525.80;107942;1289;21987;-61
2023/04/24 04:23:08;;;;;;;9.40;6.00;;;;;;;12.62;53.76;100525.73;107945;1289;21980;-61
2023/04/24 04:25:34;;;;;;;5.60;4.90;;;;;;;12.75;53.94;100526.39;107917;1289;21995;-62
2023/04/24 04:27:59;;;;;;;9.10;5.30;;;;;;;12.88;54.86;100523.67;107975;1289;21993;-61
2023/04/24 04:30:25;;;;;;;7.20;5.20;;;;;;;13.04;55.03;100524.76;107971;1283;21993;-62
2023/04/24 04:32:51;;;;;;;8.40;5.30;;;;;;;13.24;55.25;100524.70;108023;1288;22027;-61
2023/04/24 04:35:17;;;;;;;5.80;5.00;;;;;;;13.45;55.37;100530.62;108024;1285;22030;-62
2023/04/24 04:37:43;;;;;;;5.30;4.60;;;;;;;13.64;55.76;100525.27;107200;1289;1002962;-62
2023/04/24 04:40:12;;;;;;;5.80;4.90;;;;;;;13.80;55.61;100529.69;107998;1288;21987;-62
2023/04/24 04:42:40;;;;;;;9.10;5.10;;;;;;;13.95;55.87;100529.68;107286;1288;1002091;-61
2023/04/24 04:45:11;;;;;;;6.20;4.60;;;;;;;14.14;56.12;100527.99;108028;1289;21994;-61
2023/04/24 04:47:37;;;;;;;5.60;4.20;;;;;;;14.32;56.29;100528.27;108039;1289;21989;-62
2023/04/24 04:50:04;;;;;;;10.00;5.20;;;;;;;14.48;56.41;100531.17;108019;1289;21992;-61
2023/04/24 04:52:31;;;;;;;5.40;4.70;;;;;;;14.68;56.53;100527.68;108078;1289;21990;-61
2023/04/24 04:54:57;;;;;;;6.20;4.30;;;;;;;14.91;56.79;100526.91;107989;1289;21992;-62
2023/04/24 04:57:22;;;;;;;10.50;5.50;;;;;;;15.13;57.02;100523.64;108032;1289;21987;-61
2023/04/24 04:59:48;;;;;;;6.70;4.90;;;;;;;15.35;56.88;100516.98;107938;1289;22047;-61
2023/04/24 05:02:14;;;;;;;14.40;5.90;;;;;;;15.58;57.19;100515.21;107999;1289;22029;-62
2023/04/24 05:04:40;;;;;;;10.30;5.80;;;;;;;15.83;57.23;100515.69;107963;1289;21992;-61
2023/04/24 05:07:06;;;;;;;9.20;7.20;;;;;;;16.07;57.25;100512.47;108031;1289;21992;-61
2023/04/24 05:09:31;;;;;;;9.60;8.50;;;;;;;16.28;57.64;100509.67;107983;1289;21991;-61
2023/04/24 05:11:57;;;;;;;8.20;6.50;;;;;;;16.45;57.70;100513.67;107992;1289;22282;-61
2023/04/24 05:14:23;;;;;;;10.00;8.50;;;;;;;16.64;58.87;100507.70;107999;1288;22026;-61
2023/04/24 05:16:48;;;;;;;9.10;7.80;;;;;;;16.87;59.59;100510.27;108010;1289;21997;-61
2023/04/24 05:19:14;;;;;;;9.10;8.10;;;;;;;17.07;59.25;100510.64;107995;1288;22002;-61
2023/04/24 05:21:40;;;;;;;12.40;9.40;;;;;;;17.24;60.60;100508.91;108058;1288;21997;-61
2023/04/24 05:24:06;;;;;;;12.50;8.60;;;;;;;17.39;60.38;100508.55;108092;1285;21991;-63
2023/04/24 05:26:32;;;;;;;14.50;9.30;;;;;;;17.50;60.04;100507.06;108037;1288;21987;-61
2023/04/24 05:28:58;;;;;;;9.90;8.50;;;;;;;17.69;61.48;100508.08;107936;1289;21993;-62
2023/04/24 05:31:23;;;;;;;14.10;9.30;;;;;;;18.03;62.44;100505.67;107988;1288;21996;-61
2023/04/24 05:33:49;;;;;;;11.60;9.10;;;;;;;18.33;61.91;100506.73;108011;1280;23708;-61
2023/04/24 05:36:15;;;;;;;12.80;8.60;;;;;;;18.64;61.77;100506.11;107707;1289;21992;-62
2023/04/24 05:38:40;;;;;;;11.50;8.70;;;;;;;18.80;60.04;100506.86;107965;1289;21999;-60
2023/04/24 05:41:06;;;;;;;11.60;8.20;;;;;;;18.89;59.31;100507.16;107951;1289;22004;-61
2023/04/24 05:43:32;;;;;;;10.30;8.00;;;;;;;19.06;59.45;100503.58;108065;1289;21991;-62
2023/04/24 05:45:57;;;;;;;8.70;6.90;;;;;;;19.27;59.54;100499.58;107981;1289;21998;-60
2023/04/24 05:48:23;;;;;;;9.60;7.70;;;;;;;19.45;58.41;100498.91;108101;1288;21983;-62
2023/04/24 05:50:49;;;;;;;10.40;8.00;;;;;;;19.56;57.14;100495.56;108027;1288;21989;-62
2023/04/24 05:53:15;;;;;;;9.20;7.30;;;;;;;19.65;57.00;100496.02;107966;1289;21998;-62
2023/04/24 05:55:41;;;;;;;8.80;7.20;;;;;;;19.79;56.49;100496.79;108098;1288;22457;-61
2023/04/24 05:58:06;;;;;;;7.50;6.40;;;;;;;19.88;56.44;100495.78;108079;1288;21998;-60
2023/04/24 06:00:33;;;;;;;8.20;6.60;;;;;;;20.05;56.93;100491.27;108045;1288;21995;-60
2023/04/24 06:03:00;;;;;;;9.30;6.70;;;;;;;20.27;57.23;100489.98;108031;1288;21997;-62
2023/04/24 06:05:25;;;;;;;7.80;6.50;;;;;;;20.51;56.77;100485.70;108010;1289;22024;-61
2023/04/24 06:07:51;;;;;;;8.00;6.80;;;;;;;20.70;55.98;100489.37;108060;1289;21992;-61
2023/04/24 06:10:17;;;;;;;7.50;6.60;;;;;;;20.86;55.83;100490.71;108006;1288;21989;-62
2023/04/24 06:12:42;;;;;;;8.30;6.60;;;;;;;21.03;55.64;100491.40;108060;1288;21998;-60
2023/04/24 06:15:09;;;;;;;7.80;6.10;;;;;;;21.21;55.63;100494.48;108074;1288;21999;-61
2023/04/24 06:17:35;;;;;;;9.00;6.50;;;;;;;21.37;54.45;100494.52;108064;1289;21992;-62
2023/04/24 06:20:00;;;;;;;8.30;6.40;;;;;;;21.44;53.81;100496.30;107973;1289;21987;-60
2023/04/24 06:22:26;;;;;;;8.10;5.80;;;;;;;21.55;54.35;100495.48;107967;1289;21986;-60
2023/04/24 06:24:52;;;;;;;7.50;6.50;;;;;;;21.70;53.57;100496.43;108013;1289;21984;-62
2023/04/24 06:27:18;;;;;;;9.00;6.20;;;;;;;21.84;53.00;100495.51;107988;1289;21986;-62
2023/04/24 06:29:43;;;;;;;8.50;6.00;;;;;;;21.97;53.49;100496.33;107958;1289;21995;-61
2023/04/24 06:32:09;;;;;;;10.00;6.00;;;;;;;22.22;54.24;100494.55;108001;1289;21994;-61
2023/04/24 06:34:36;;;;;;;7.70;6.30;;;;;;;22.50;53.51;100495.78;107900;1289;21995;-63
2023/04/24 06:37:02;;;;;;;7.30;5.90;;;;;;;22.72;52.94;100496.61;108095;1289;23643;-61
2023/04/24 06:39:27;;;;;;;6.20;5.30;;;;;;;22.99;53.78;100492.95;108013;1289;22002;-61
2023/04/24 06:41:53;;;;;;;6.90;5.60;;;;;;;23.28;53.14;100492.76;108020;1289;21987;-61
2023/04/24 06:44:19;;;;;;;7.10;5.40;;;;;;;23.56;52.75;100490.95;107994;1289;21985;-62
2023/04/24 06:46:47;;;;;;;6.60;5.30;;;;;;;23.79;50.39;100491.80;108057;1288;22026;-62
2023/04/24 06:49:15;;;;;;;9.40;4.80;;;;;;;23.89;48.04;100494.36;108030;1289;21989;-61
2023/04/24 06:51:41;;;;;;;6.40;4.70;;;;;;;23.91;47.89;100492.60;108033;1289;21981;-62
2023/04/24 06:54:07;;;;;;;6.60;5.10;;;;;;;23.99;46.71;100492.69;107982;1289;21990;-61
2023/04/24 06:56:34;;;;;;;5.20;3.30;;;;;;;24.02;46.19;100489.06;108046;1288;22002;-61
2023/04/24 06:58:59;;;;;;;6.20;3.70;;;;;;;23.94;43.96;100487.78;108077;1289;22049;-62
2023/04/24 07:01:25;;;;;;;6.40;3.80;;;;;;;23.99;44.25;100484.77;108060;1289;21989;-62
2023/04/24 07:03:50;;;;;;;5.90;4.00;;;;;;;24.10;42.58;100486.21;108030;1289;21996;-61
2023/04/24 07:06:18;;;;;;;5.50;4.40;;;;;;;24.15;42.66;100485.73;107977;1289;21992;-64
2023/04/24 07:08:44;;;;;;;6.00;3.20;;;;;;;24.15;39.01;100480.14;107855;1289;22083;-62
2023/04/24 07:11:09;;;;;;;5.60;3.40;;;;;;;24.15;39.79;100481.73;108005;1289;22001;-61
2023/04/24 07:13:35;;;;;;;5.30;3.40;;;;;;;24.20;39.90;100484.46;108040;1289;21990;-61
2023/04/24 07:16:01;;;;;;;4.80;3.50;;;;;;;24.24;39.75;100484.05;108026;1289;21993;-63
2023/04/24 07:18:27;;;;;;;5.00;3.60;;;;;;;24.24;40.04;100482.95;108055;1289;21997;-61
2023/04/24 07:20:52;;;;;;;6.30;3.20;;;;;;;24.23;39.95;100480.56;108012;1289;21997;-62
2023/04/24 07:23:19;;;;;;;4.10;3.30;;;;;;;24.31;39.59;100480.53;107976;1289;21988;-62
2023/04/24 07:25:45;;;;;;;4.30;3.10;;;;;;;24.45;39.53;100481.19;107988;1289;21993;-61
2023/04/24 07:28:11;;;;;;;5.60;3.70;;;;;;;24.53;39.20;100479.18;108019;1289;21998;-63
2023/04/24 07:30:36;;;;;;;7.20;3.30;;;;;;;24.59;39.06;100480.71;107982;1289;22033;-62
2023/04/24 07:33:02;;;;;;;5.00;3.60;;;;;;;24.67;38.45;100479.80;108019;1289;22028;-61
2023/04/24 07:35:28;;;;;;;4.60;3.50;;;;;;;24.80;38.38;100479.71;107900;1288;21989;-60
2023/04/24 07:37:53;;;;;;;5.30;3.50;;;;;;;24.90;37.37;100480.78;108122;1289;21992;-62
2023/04/24 07:40:19;;;;;;;6.10;3.60;;;;;;;24.95;37.91;100478.63;107947;1289;21992;-62
2023/04/24 07:42:48;;;;;;;5.50;3.70;;;;;;;25.03;37.82;100479.86;107987;1288;22000;-61
2023/04/24 07:45:14;;;;;;;4.50;3.80;;;;;;;25.24;39.40;100477.41;107960;1289;21994;-61
2023/04/24 07:47:45;;;;;;;4.40;2.90;;;;;;;25.63;39.36;100475.70;107875;1288;23828;-61
2023/04/24 07:50:11;;;;;;;6.10;3.70;;;;;;;25.85;37.58;100476.62;107923;1289;21995;-62
2023/04/24 07:52:37;;;;;;;4.30;3.10;;;;;;;25.92;37.25;100473.54;108066;1286;21992;-60
2023/04/24 07:55:04;;;;;;;7.50;3.40;;;;;;;26.04;37.50;100470.88;108135;1289;21987;-62
2023/04/24 07:57:30;;;;;;;8.40;3.60;;;;;;;26.11;37.82;100470.33;107959;1283;22035;-63
2023/04/24 07:59:56;;;;;;;4.50;3.30;;;;;;;26.14;36.88;100469.81;107869;1289;21990;-62
2023/04/24 08:02:26;;;;;;;6.40;3.60;;;;;;;26.24;36.82;100470.63;108131;1285;21988;-60
2023/04/24 08:04:55;;;;;;;4.90;3.50;;;;;;;26.21;34.89;100468.71;107944;1288;21990;-62
2023/04/24 08:07:21;;;;;;;6.70;3.40;;;;;;;26.23;35.37;100467.99;107963;1289;21989;-60
2023/04/24 08:09:47;;;;;;;4.90;3.40;;;;;;;26.38;36.03;100466.50;107940;1289;22166;-60
2023/04/24 08:12:13;;;;;;;5.10;3.30;;;;;;;26.55;36.19;100464.64;108028;1288;21998;-62
2023/04/24 08:14:39;;;;;;;5.50;3.30;;;;;;;26.53;34.49;100465.92;107970;1289;22202;-62
2023/04/24 08:17:05;;;;;;;6.60;3.40;;;;;;;26.38;33.62;100469.20;107871;1288;22159;-60
2023/04/24 08:19:32;;;;;;;6.00;3.70;;;;;;;26.36;34.61;100464.88;107956;1288;21991;-62
2023/04/24 08:21:57;;;;;;;5.90;3.50;;;;;;;26.37;33.47;100467.85;108081;1288;21996;-62
2023/04/24 08:24:23;;;;;;;9.00;3.30;;;;;;;26.21;33.71;100461.73;108078;1287;21995;-61
2023/04/24 08:26:53;;;;;;;6.20;2.80;;;;;;;26.14;34.53;100460.92;108058;1288;22158;-62
2023/04/24 08:29:19;;;;;;;5.10;3.40;;;;;;;26.24;34.76;100459.29;108063;1288;21993;-60
2023/04/24 08:31:45;;;;;;;5.10;3.20;;;;;;;26.53;34.32;100458.16;107990;1289;21992;-63
2023/04/24 08:34:11;;;;;;;6.50;3.10;;;;;;;26.76;34.22;100459.61;107991;1288;21992;-60
2023/04/24 08:36:37;;;;;;;6.40;3.10;;;;;;;26.92;34.30;100454.94;108004;1288;25642;-62
2023/04/24 08:39:03;;;;;;;5.20;3.30;;;;;;;26.96;32.62;100455.50;108023;1288;22032;-62
2023/04/24 08:41:28;;;;;;;4.50;3.40;;;;;;;27.13;33.52;100452.40;108035;1289;21989;-60
2023/04/24 08:43:54;;;;;;;5.40;2.80;;;;;;;27.27;32.94;100449.06;107820;1289;21998;-64
2023/04/24 08:46:20;;;;;;;4.80;2.90;;;;;;;27.36;32.11;100449.27;108036;1289;21997;-62
2023/04/24 08:48:46;;;;;;;4.40;2.70;;;;;;;27.37;31.77;100446.45;107767;1289;21994;-62
2023/04/24 08:51:11;;;;;;;4.20;2.70;;;;;;;27.37;32.05;100445.95;107899;1288;21993;-61
2023/04/24 08:53:37;;;;;;;6.10;2.70;;;;;;;27.37;31.53;100447.00;107932;1289;22000;-65
2023/04/24 08:56:03;;;;;;;5.70;3.00;;;;;;;27.33;30.64;100447.17;107886;1289;21996;-62
2023/04/24 08:58:30;;;;;;;4.20;2.70;;;;;;;27.42;32.08;100444.45;107894;1289;21990;-62
2023/04/24 09:00:56;;;;;;;3.70;2.70;;;;;;;27.74;32.46;100441.65;107997;1288;22003;-61
2023/04/24 09:03:22;;;;;;;6.60;2.50;;;;;;;28.04;31.27;100438.07;108041;1289;22011;-64
2023/04/24 09:05:49;;;;;;;7.40;2.50;;;;;;;28.06;29.72;100436.41;108058;1288;22001;-60
2023/04/24 09:08:15;;;;;;;4.60;2.90;;;;;;;27.98;30.27;100435.84;108029;1289;22030;-61
2023/04/24 09:10:41;;;;;;;5.20;2.70;;;;;;;27.95;31.10;100435.23;107873;1286;21997;-60
2023/04/24 09:13:09;;;;;;;5.20;2.90;;;;;;;28.10;31.94;100430.73;107947;1289;22006;-62
2023/04/24 09:15:35;;;;;;;5.50;3.20;;;;;;;28.34;31.24;100426.66;107866;1288;21987;-63
2023/04/24 09:18:01;;;;;;;12.10;3.40;;;;;;;28.55;30.25;100424.29;108045;1288;21990;-63
2023/04/24 09:20:27;;;;;;;5.80;3.30;;;;;;;28.61;29.61;100420.16;107807;1288;21989;-60
2023/04/24 09:22:54;;;;;;;7.80;3.00;;;;;;;28.51;27.84;100419.98;108121;1288;22003;-61
2023/04/24 09:25:21;;;;;;;5.60;2.70;;;;;;;28.39;29.11;100423.16;108112;1288;21992;-63
2023/04/24 09:27:47;;;;;;;4.30;2.50;;;;;;;28.29;29.44;100423.52;107877;1288;21995;-62
2023/04/24 09:30:13;;;;;;;5.00;2.60;;;;;;;28.14;30.05;100419.00;108045;1288;21993;-61
2023/04/24 09:32:38;;;;;;;5.80;2.70;;;;;;;28.15;30.16;100416.00;107951;1289;22092;-61
2023/04/24 09:35:14;;;;;;;3.80;2.40;;;;;;;28.33;30.23;100413.63;108004;1289;21991;-62
2023/04/24 09:37:42;;;;;;;4.80;2.80;;;;;;;28.43;29.83;100406.83;108055;1288;22002;-63
2023/04/24 09:40:11;;;;;;;6.60;2.70;;;;;;;28.43;28.95;100403.92;108126;1289;22011;-65
2023/04/24 09:42:37;;;;;;;5.20;2.70;;;;;;;28.35;28.47;100408.02;108163;1288;21996;-61
2023/04/24 09:45:03;;;;;;;7.40;3.00;;;;;;;28.37;28.67;100404.63;108076;1288;21974;-61
2023/04/24 09:47:39;;;;;;;5.40;2.70;;;;;;;28.34;27.83;100404.29;108094;1288;21990;-61
2023/04/24 09:50:24;;;;;;;6.30;3.00;;;;;;;28.45;30.00;100404.64;108110;1288;21985;-61
2023/04/24 09:52:58;;;;;;;3.70;2.40;;;;;;;28.63;29.80;100400.67;108027;1289;21996;-62
2023/04/24 09:55:24;;;;;;;6.10;3.30;;;;;;;28.60;29.58;100399.17;108015;1289;22010;-63
2023/04/24 09:57:57;;;;;;;4.30;2.80;;;;;;;28.41;27.83;100399.34;108028;1284;21985;-61
2023/04/24 10:00:28;;;;;;;7.20;2.70;;;;;;;28.35;29.03;100397.91;108068;1288;22177;-61
2023/04/24 10:02:55;;;;;;;5.60;3.10;;;;;;;28.43;29.31;100395.98;108007;1289;21970;-61
2023/04/24 10:05:39;;;;;;;6.50;3.00;;;;;;;28.62;28.90;100397.71;108058;1288;21989;-61
2023/04/24 10:08:06;;;;;;;4.30;2.70;;;;;;;28.79;29.22;100391.52;107958;1288;21999;-63
2023/04/24 10:10:34;;;;;;;3.80;2.60;;;;;;;28.95;28.85;100388.16;107904;1289;22000;-63
2023/04/24 10:13:01;;;;;;;5.20;2.70;;;;;;;29.00;28.58;100383.19;107998;1289;21987;-61
2023/04/24 10:15:27;;;;;;;5.30;2.70;;;;;;;28.95;28.45;100386.72;108013;1289;21992;-64
2023/04/24 10:17:53;;;;;;;7.10;3.00;;;;;;;28.87;28.02;100391.36;108094;1288;21988;-62
2023/04/24 10:20:22;;;;;;;8.10;2.90;;;;;;;28.82;28.40;100386.98;107318;1288;1002609;-62
2023/04/24 10:22:50;;;;;;;3.60;2.70;;;;;;;28.84;29.12;100389.84;108110;1288;21994;-64
2023/04/24 10:25:20;;;;;;;4.30;2.80;;;;;;;28.96;29.63;100388.64;108027;1288;22001;-61
2023/04/24 10:27:46;;;;;;;5.20;2.40;;;;;;;29.09;29.04;100382.23;107803;1289;21992;-63
2023/04/24 10:30:12;;;;;;;4.10;2.40;;;;;;;29.19;28.67;100381.64;107999;1289;21995;-63
2023/04/24 10:32:38;;;;;;;3.80;2.50;;;;;;;29.22;28.99;100382.11;108099;1289;22002;-63
2023/04/24 10:35:06;;;;;;;3.90;2.40;;;;;;;29.16;28.64;100379.08;107978;1289;22015;-61
2023/04/24 10:37:39;;;;;;;5.70;2.40;;;;;;;28.93;28.94;100378.54;108081;1288;21992;-63
2023/04/24 10:40:05;;;;;;;4.10;2.30;;;;;;;28.65;28.55;100379.25;108126;1288;22058;-61
2023/04/24 10:42:32;;;;;;;5.40;2.60;;;;;;;28.40;29.41;100376.89;108096;1288;21992;-61
2023/04/24 10:44:58;;;;;;;6.20;2.60;;;;;;;28.18;29.31;100372.98;108103;1288;21989;-61
2023/04/24 10:47:25;;;;;;;4.60;2.60;;;;;;;28.02;29.45;100365.91;107868;1289;21989;-61
2023/04/24 10:49:50;;;;;;;4.60;2.60;;;;;;;27.80;28.12;100368.31;108035;1288;21997;-61
2023/04/24 10:52:16;;;;;;;4.50;2.30;;;;;;;27.64;27.04;100369.50;108049;1288;22079;-61
2023/04/24 10:54:44;;;;;;;4.60;2.30;;;;;;;27.65;27.84;100370.63;108031;1289;22084;-63
2023/04/24 10:57:19;;;;;;;5.60;2.60;;;;;;;27.87;27.73;100370.46;107999;1289;22001;-61
2023/04/24 10:59:45;;;;;;;4.20;2.30;;;;;;;28.04;27.20;100369.31;107989;1289;22029;-61
2023/04/24 11:02:11;;;;;;;3.60;2.00;;;;;;;28.30;27.98;100367.48;107943;1289;21992;-61
2023/04/24 11:04:36;;;;;;;7.20;2.40;;;;;;;28.54;27.41;100367.59;107991;1289;21986;-61
2023/04/24 11:07:03;;;;;;;6.00;2.10;;;;;;;28.70;26.52;100368.66;107888;1289;22006;-64